sensor_id;sensor_type;location;lat;lon;timestamp;pressure;altitude;pressure_sealevel;temperature;humidity
12178;BME280;6152;48.728;9.256;2023-02-08T00:00:22;99009.97;;;-3.11;72.27
12178;BME280;6152;48.728;9.256;2023-02-08T00:02:49;99009.03;;;-3.13;73.52
12178;BME280;6152;48.728;9.256;2023-02-08T00:05:16;99003.94;;;-3.13;73.54
12178;BME280;6152;48.728;9.256;2023-02-08T00:07:42;99002.19;;;-3.16;74.25
12178;BME280;6152;48.728;9.256;2023-02-08T00:10:08;98990.25;;;-3.18;76.26
12178;BME280;6152;48.728;9.256;2023-02-08T00:12:36;98986.97;;;-3.14;75.58
12178;BME280;6152;48.728;9.256;2023-02-08T00:15:03;98979.22;;;-3.19;77.30
12178;BME280;6152;48.728;9.256;2023-02-08T00:17:29;98978.22;;;-3.25;78.39
12178;BME280;6152;48.728;9.256;2023-02-08T00:19:55;98974.75;;;-3.29;79.67
12178;BME280;6152;48.728;9.256;2023-02-08T00:22:22;98968.66;;;-3.34;79.99
12178;BME280;6152;48.728;9.256;2023-02-08T00:24:49;98966.03;;;-3.38;80.93
12178;BME280;6152;48.728;9.256;2023-02-08T00:27:16;98964.31;;;-3.39;80.71
12178;BME280;6152;48.728;9.256;2023-02-08T00:29:42;98967.66;;;-3.40;78.79
12178;BME280;6152;48.728;9.256;2023-02-08T00:32:09;98969.38;;;-3.39;79.24
12178;BME280;6152;48.728;9.256;2023-02-08T00:34:36;98965.03;;;-3.45;78.49
12178;BME280;6152;48.728;9.256;2023-02-08T00:37:04;98959.09;;;-3.44;77.94
12178;BME280;6152;48.728;9.256;2023-02-08T00:39:30;98962.38;;;-3.49;80.95
12178;BME280;6152;48.728;9.256;2023-02-08T00:41:56;98956.41;;;-3.50;81.36
12178;BME280;6152;48.728;9.256;2023-02-08T00:44:22;98959.75;;;-3.51;81.81
12178;BME280;6152;48.728;9.256;2023-02-08T00:46:49;98955.63;;;-3.47;80.98
12178;BME280;6152;48.728;9.256;2023-02-08T00:49:15;98950.44;;;-3.50;80.83
12178;BME280;6152;48.728;9.256;2023-02-08T00:51:41;98951.25;;;-3.51;79.69
12178;BME280;6152;48.728;9.256;2023-02-08T00:54:16;98953.78;;;-3.53;79.12
12178;BME280;6152;48.728;9.256;2023-02-08T00:56:43;98956.47;;;-3.48;78.20
12178;BME280;6152;48.728;9.256;2023-02-08T00:59:09;98957.34;;;-3.46;77.87
12178;BME280;6152;48.728;9.256;2023-02-08T01:01:36;98960.69;;;-3.47;77.30
12178;BME280;6152;48.728;9.256;2023-02-08T01:04:02;98961.53;;;-3.48;77.62
12178;BME280;6152;48.728;9.256;2023-02-08T01:06:28;98965.03;;;-3.45;74.26
12178;BME280;6152;48.728;9.256;2023-02-08T01:08:54;98971.19;;;-3.35;73.21
12178;BME280;6152;48.728;9.256;2023-02-08T01:11:22;98970.38;;;-3.33;73.22
12178;BME280;6152;48.728;9.256;2023-02-08T01:13:51;98973.13;;;-3.25;71.79
12178;BME280;6152;48.728;9.256;2023-02-08T01:16:24;98975.75;;;-3.22;72.17
12178;BME280;6152;48.728;9.256;2023-02-08T01:18:52;98975.66;;;-3.25;72.47
12178;BME280;6152;48.728;9.256;2023-02-08T01:21:22;98973.00;;;-3.30;72.34
12178;BME280;6152;48.728;9.256;2023-02-08T01:23:49;98973.75;;;-3.34;73.04
12178;BME280;6152;48.728;9.256;2023-02-08T01:26:16;98967.91;;;-3.31;72.20
12178;BME280;6152;48.728;9.256;2023-02-08T01:28:43;98968.66;;;-3.35;72.25
12178;BME280;6152;48.728;9.256;2023-02-08T01:31:12;98950.75;;;-3.38;72.19
12178;BME280;6152;48.728;9.256;2023-02-08T01:33:39;98961.88;;;-3.35;71.73
12178;BME280;6152;48.728;9.256;2023-02-08T01:36:05;98949.22;;;-3.32;70.83
12178;BME280;6152;48.728;9.256;2023-02-08T01:38:32;98953.31;;;-3.37;71.69
12178;BME280;6152;48.728;9.256;2023-02-08T01:40:59;98946.00;;;-3.23;70.32
12178;BME280;6152;48.728;9.256;2023-02-08T01:43:32;98950.09;;;-3.30;70.61
12178;BME280;6152;48.728;9.256;2023-02-08T01:45:58;98947.75;;;-3.22;71.57
12178;BME280;6152;48.728;9.256;2023-02-08T01:48:37;98949.22;;;-3.32;71.74
12178;BME280;6152;48.728;9.256;2023-02-08T01:51:18;98945.66;;;-3.38;73.05
12178;BME280;6152;48.728;9.256;2023-02-08T01:53:46;98946.50;;;-3.38;73.42
12178;BME280;6152;48.728;9.256;2023-02-08T01:56:19;98935.31;;;-3.44;73.64
12178;BME280;6152;48.728;9.256;2023-02-08T01:58:51;98936.97;;;-3.46;74.86
12178;BME280;6152;48.728;9.256;2023-02-08T02:01:18;98935.31;;;-3.44;76.09
12178;BME280;6152;48.728;9.256;2023-02-08T02:03:44;98931.81;;;-3.49;76.53
12178;BME280;6152;48.728;9.256;2023-02-08T02:06:23;98921.66;;;-3.48;75.64
12178;BME280;6152;48.728;9.256;2023-02-08T02:09:13;98930.91;;;-3.51;76.85
12178;BME280;6152;48.728;9.256;2023-02-08T02:11:42;98930.09;;;-3.50;75.59
12178;BME280;6152;48.728;9.256;2023-02-08T02:14:09;98923.97;;;-3.59;75.88
12178;BME280;6152;48.728;9.256;2023-02-08T02:16:36;98924.88;;;-3.55;75.50
12178;BME280;6152;48.728;9.256;2023-02-08T02:19:04;98922.31;;;-3.57;74.84
12178;BME280;6152;48.728;9.256;2023-02-08T02:22:04;98909.06;;;-3.43;73.04
12178;BME280;6152;48.728;9.256;2023-02-08T02:27:42;98913.84;;;-3.57;74.15
12178;BME280;6152;48.728;9.256;2023-02-08T02:43:51;98906.00;;;-3.65;76.59
12178;BME280;6152;48.728;9.256;2023-02-08T02:46:46;98901.66;;;-3.70;77.08
12178;BME280;6152;48.728;9.256;2023-02-08T02:49:23;98898.16;;;-3.74;77.94
12178;BME280;6152;48.728;9.256;2023-02-08T02:51:57;98898.09;;;-3.77;79.62
12178;BME280;6152;48.728;9.256;2023-02-08T02:54:45;98902.94;;;-3.86;80.54
12178;BME280;6152;48.728;9.256;2023-02-08T02:57:17;98906.53;;;-3.79;79.64
12178;BME280;6152;48.728;9.256;2023-02-08T02:59:44;98910.13;;;-3.70;77.81
12178;BME280;6152;48.728;9.256;2023-02-08T03:02:12;98906.63;;;-3.75;79.05
12178;BME280;6152;48.728;9.256;2023-02-08T03:09:56;98912.28;;;-3.85;81.72
12178;BME280;6152;48.728;9.256;2023-02-08T03:18:33;98908.88;;;-3.85;82.39
12178;BME280;6152;48.728;9.256;2023-02-08T03:21:02;98905.47;;;-3.86;81.55
12178;BME280;6152;48.728;9.256;2023-02-08T03:23:45;98902.13;;;-3.85;82.23
12178;BME280;6152;48.728;9.256;2023-02-08T03:26:22;98904.66;;;-3.85;82.69
12178;BME280;6152;48.728;9.256;2023-02-08T03:29:07;98907.13;;;-3.88;83.15
12178;BME280;6152;48.728;9.256;2023-02-08T03:31:44;98906.28;;;-3.88;83.04
12178;BME280;6152;48.728;9.256;2023-02-08T03:34:13;98907.06;;;-3.91;82.43
12178;BME280;6152;48.728;9.256;2023-02-08T03:36:49;98900.31;;;-3.89;82.12
12178;BME280;6152;48.728;9.256;2023-02-08T03:39:20;98904.44;;;-3.94;84.07
12178;BME280;6152;48.728;9.256;2023-02-08T03:41:51;98912.97;;;-3.92;84.56
12178;BME280;6152;48.728;9.256;2023-02-08T03:44:28;98917.91;;;-3.98;85.20
12178;BME280;6152;48.728;9.256;2023-02-08T03:47:12;98910.28;;;-3.98;85.29
12178;BME280;6152;48.728;9.256;2023-02-08T03:49:42;98911.81;;;-4.03;86.76
12178;BME280;6152;48.728;9.256;2023-02-08T03:52:11;98918.50;;;-4.08;88.34
12178;BME280;6152;48.728;9.256;2023-02-08T03:54:45;98907.66;;;-4.01;87.33
12178;BME280;6152;48.728;9.256;2023-02-08T03:57:23;98906.66;;;-4.06;87.87
12178;BME280;6152;48.728;9.256;2023-02-08T03:59:57;98899.69;;;-4.13;89.64
12178;BME280;6152;48.728;9.256;2023-02-08T04:02:28;98898.00;;;-4.14;89.60
12178;BME280;6152;48.728;9.256;2023-02-08T04:04:56;98903.84;;;-4.17;89.72
12178;BME280;6152;48.728;9.256;2023-02-08T04:07:23;98895.34;;;-4.17;91.24
12178;BME280;6152;48.728;9.256;2023-02-08T04:09:49;98905.53;;;-4.17;91.71
12178;BME280;6152;48.728;9.256;2023-02-08T04:12:16;98902.97;;;-4.19;91.17
12178;BME280;6152;48.728;9.256;2023-02-08T04:14:42;98907.88;;;-4.25;91.62
12178;BME280;6152;48.728;9.256;2023-02-08T04:17:08;98901.88;;;-4.28;93.37
12178;BME280;6152;48.728;9.256;2023-02-08T04:19:34;98899.25;;;-4.31;94.36
12178;BME280;6152;48.728;9.256;2023-02-08T04:22:00;98900.06;;;-4.32;95.69
12178;BME280;6152;48.728;9.256;2023-02-08T04:24:26;98895.78;;;-4.35;96.27
12178;BME280;6152;48.728;9.256;2023-02-08T04:26:52;98899.94;;;-4.37;96.13
12178;BME280;6152;48.728;9.256;2023-02-08T04:29:18;98899.00;;;-4.40;96.72
12178;BME280;6152;48.728;9.256;2023-02-08T04:31:44;98902.38;;;-4.41;98.13
12178;BME280;6152;48.728;9.256;2023-02-08T04:34:10;98898.81;;;-4.46;98.30
12178;BME280;6152;48.728;9.256;2023-02-08T04:36:37;98897.09;;;-4.47;100.00
12178;BME280;6152;48.728;9.256;2023-02-08T04:39:03;98890.31;;;-4.48;99.61
12178;BME280;6152;48.728;9.256;2023-02-08T04:41:29;98889.38;;;-4.52;99.97
12178;BME280;6152;48.728;9.256;2023-02-08T04:43:55;98890.13;;;-4.54;100.00
12178;BME280;6152;48.728;9.256;2023-02-08T04:46:21;98893.50;;;-4.55;99.75
12178;BME280;6152;48.728;9.256;2023-02-08T04:48:47;98886.63;;;-4.60;99.51
12178;BME280;6152;48.728;9.256;2023-02-08T04:51:13;98885.81;;;-4.58;100.00
12178;BME280;6152;48.728;9.256;2023-02-08T04:53:39;98882.34;;;-4.61;99.98
12178;BME280;6152;48.728;9.256;2023-02-08T04:56:05;98883.28;;;-4.58;100.00
12178;BME280;6152;48.728;9.256;2023-02-08T04:58:32;98887.56;;;-4.56;99.32
12178;BME280;6152;48.728;9.256;2023-02-08T05:00:58;98883.28;;;-4.58;99.51
12178;BME280;6152;48.728;9.256;2023-02-08T05:03:24;98881.69;;;-4.53;99.94
12178;BME280;6152;48.728;9.256;2023-02-08T05:05:59;98875.81;;;-4.52;99.10
12178;BME280;6152;48.728;9.256;2023-02-08T05:08:26;98874.81;;;-4.57;99.49
12178;BME280;6152;48.728;9.256;2023-02-08T05:10:52;98877.41;;;-4.56;99.38
12178;BME280;6152;48.728;9.256;2023-02-08T05:13:19;98868.91;;;-4.56;100.00
12178;BME280;6152;48.728;9.256;2023-02-08T05:15:45;98874.13;;;-4.52;100.00
12178;BME280;6152;48.728;9.256;2023-02-08T05:18:11;98866.53;;;-4.50;100.00
12178;BME280;6152;48.728;9.256;2023-02-08T05:20:37;98871.63;;;-4.50;100.00
12178;BME280;6152;48.728;9.256;2023-02-08T05:23:03;98868.03;;;-4.58;100.00
12178;BME280;6152;48.728;9.256;2023-02-08T05:25:30;98861.31;;;-4.56;100.00
12178;BME280;6152;48.728;9.256;2023-02-08T05:27:57;98870.59;;;-4.57;100.00
12178;BME280;6152;48.728;9.256;2023-02-08T05:30:23;98863.03;;;-4.55;100.00
12178;BME280;6152;48.728;9.256;2023-02-08T05:32:50;98862.97;;;-4.58;100.00
12178;BME280;6152;48.728;9.256;2023-02-08T05:35:16;98872.06;;;-4.65;100.00
12178;BME280;6152;48.728;9.256;2023-02-08T05:37:42;98869.50;;;-4.67;100.00
12178;BME280;6152;48.728;9.256;2023-02-08T05:40:09;98874.44;;;-4.71;100.00
12178;BME280;6152;48.728;9.256;2023-02-08T05:42:35;98870.09;;;-4.75;100.00
12178;BME280;6152;48.728;9.256;2023-02-08T05:45:02;98875.16;;;-4.75;100.00
12178;BME280;6152;48.728;9.256;2023-02-08T05:47:28;98878.88;;;-4.64;99.33
12178;BME280;6152;48.728;9.256;2023-02-08T05:49:54;98884.00;;;-4.63;98.26
12178;BME280;6152;48.728;9.256;2023-02-08T05:52:20;98888.94;;;-4.67;97.71
12178;BME280;6152;48.728;9.256;2023-02-08T05:54:46;98883.72;;;-4.72;98.29
12178;BME280;6152;48.728;9.256;2023-02-08T05:57:12;98891.34;;;-4.72;97.78
12178;BME280;6152;48.728;9.256;2023-02-08T05:59:38;98881.81;;;-4.80;99.17
12178;BME280;6152;48.728;9.256;2023-02-08T06:02:04;98886.03;;;-4.81;99.00
12178;BME280;6152;48.728;9.256;2023-02-08T06:04:30;98883.50;;;-4.81;97.88
12178;BME280;6152;48.728;9.256;2023-02-08T06:06:57;98891.91;;;-4.82;97.97
12178;BME280;6152;48.728;9.256;2023-02-08T06:09:23;98886.72;;;-4.86;97.79
12178;BME280;6152;48.728;9.256;2023-02-08T06:11:49;98882.59;;;-4.83;97.26
12178;BME280;6152;48.728;9.256;2023-02-08T06:14:15;98877.31;;;-4.89;97.96
12178;BME280;6152;48.728;9.256;2023-02-08T06:16:41;98889.22;;;-4.88;97.82
12178;BME280;6152;48.728;9.256;2023-02-08T06:19:07;98895.22;;;-4.84;97.00
12178;BME280;6152;48.728;9.256;2023-02-08T06:21:33;98896.19;;;-4.81;96.34
12178;BME280;6152;48.728;9.256;2023-02-08T06:23:59;98894.38;;;-4.85;96.63
12178;BME280;6152;48.728;9.256;2023-02-08T06:26:25;98896.09;;;-4.84;97.34
12178;BME280;6152;48.728;9.256;2023-02-08T06:28:51;98896.25;;;-4.78;99.99
12178;BME280;6152;48.728;9.256;2023-02-08T06:31:17;98890.31;;;-4.78;100.00
12178;BME280;6152;48.728;9.256;2023-02-08T06:33:43;98893.50;;;-4.85;100.00
12178;BME280;6152;48.728;9.256;2023-02-08T06:36:09;98898.34;;;-4.93;100.00
12178;BME280;6152;48.728;9.256;2023-02-08T06:38:36;98900.09;;;-4.92;100.00
12178;BME280;6152;48.728;9.256;2023-02-08T06:41:02;98900.94;;;-4.91;100.00
12178;BME280;6152;48.728;9.256;2023-02-08T06:43:28;98905.97;;;-4.93;100.00
12178;BME280;6152;48.728;9.256;2023-02-08T06:45:54;98901.66;;;-4.97;100.00
12178;BME280;6152;48.728;9.256;2023-02-08T06:48:20;98905.03;;;-4.96;100.00
12178;BME280;6152;48.728;9.256;2023-02-08T06:50:46;98886.09;;;-5.07;100.00
12178;BME280;6152;48.728;9.256;2023-02-08T06:53:12;98890.56;;;-4.99;100.00
12178;BME280;6152;48.728;9.256;2023-02-08T06:55:40;98899.84;;;-4.99;100.00
12178;BME280;6152;48.728;9.256;2023-02-08T06:58:06;98903.25;;;-5.00;100.00
12178;BME280;6152;48.728;9.256;2023-02-08T07:00:32;98907.38;;;-5.04;100.00
12178;BME280;6152;48.728;9.256;2023-02-08T07:02:58;98903.31;;;-4.97;100.00
12178;BME280;6152;48.728;9.256;2023-02-08T07:05:25;98905.84;;;-4.97;100.00
12178;BME280;6152;48.728;9.256;2023-02-08T07:07:51;98904.19;;;-4.97;100.00
12178;BME280;6152;48.728;9.256;2023-02-08T07:10:18;98908.47;;;-4.94;100.00
12178;BME280;6152;48.728;9.256;2023-02-08T07:12:44;98905.16;;;-4.92;100.00
12178;BME280;6152;48.728;9.256;2023-02-08T07:15:10;98912.94;;;-4.86;100.00
12178;BME280;6152;48.728;9.256;2023-02-08T07:17:38;98918.03;;;-4.86;99.66
12178;BME280;6152;48.728;9.256;2023-02-08T07:20:05;98906.41;;;-4.78;98.36
12178;BME280;6152;48.728;9.256;2023-02-08T07:22:31;98920.00;;;-4.76;97.61
12178;BME280;6152;48.728;9.256;2023-02-08T07:24:57;98918.47;;;-4.71;97.08
12178;BME280;6152;48.728;9.256;2023-02-08T07:27:23;98913.63;;;-4.62;95.42
12178;BME280;6152;48.728;9.256;2023-02-08T07:29:49;98917.25;;;-4.53;93.25
12178;BME280;6152;48.728;9.256;2023-02-08T07:32:15;98919.28;;;-4.42;91.82
12178;BME280;6152;48.728;9.256;2023-02-08T07:34:41;98926.19;;;-4.38;90.95
12178;BME280;6152;48.728;9.256;2023-02-08T07:37:08;98919.66;;;-4.28;89.72
12178;BME280;6152;48.728;9.256;2023-02-08T07:39:34;98918.06;;;-4.23;89.18
12178;BME280;6152;48.728;9.256;2023-02-08T07:42:00;98917.34;;;-4.19;87.92
12178;BME280;6152;48.728;9.256;2023-02-08T07:44:26;98914.16;;;-4.12;85.62
12178;BME280;6152;48.728;9.256;2023-02-08T07:46:52;98919.59;;;-3.98;84.87
12178;BME280;6152;48.728;9.256;2023-02-08T07:49:19;98913.72;;;-3.96;83.50
12178;BME280;6152;48.728;9.256;2023-02-08T07:51:45;98913.03;;;-3.89;83.02
12178;BME280;6152;48.728;9.256;2023-02-08T07:54:11;98919.13;;;-3.84;82.22
12178;BME280;6152;48.728;9.256;2023-02-08T07:56:37;98921.06;;;-3.74;81.17
12178;BME280;6152;48.728;9.256;2023-02-08T07:59:03;98915.31;;;-3.65;80.01
12178;BME280;6152;48.728;9.256;2023-02-08T08:01:29;98916.97;;;-3.67;81.31
12178;BME280;6152;48.728;9.256;2023-02-08T08:03:55;98919.72;;;-3.58;80.91
12178;BME280;6152;48.728;9.256;2023-02-08T08:06:22;98919.91;;;-3.50;82.35
12178;BME280;6152;48.728;9.256;2023-02-08T08:08:49;98918.44;;;-3.42;81.22
12178;BME280;6152;48.728;9.256;2023-02-08T08:11:16;98910.91;;;-3.36;80.79
12178;BME280;6152;48.728;9.256;2023-02-08T08:13:43;98907.69;;;-3.29;78.41
12178;BME280;6152;48.728;9.256;2023-02-08T08:16:09;98907.06;;;-3.21;76.23
12178;BME280;6152;48.728;9.256;2023-02-08T08:18:35;98909.72;;;-3.15;76.58
12178;BME280;6152;48.728;9.256;2023-02-08T08:21:02;98911.38;;;-3.17;77.66
12178;BME280;6152;48.728;9.256;2023-02-08T08:23:28;98912.50;;;-3.04;76.64
12178;BME280;6152;48.728;9.256;2023-02-08T08:25:54;98911.31;;;-2.81;76.55
12178;BME280;6152;48.728;9.256;2023-02-08T08:28:21;98913.91;;;-2.78;76.79
12178;BME280;6152;48.728;9.256;2023-02-08T08:30:47;98903.81;;;-2.73;74.98
12178;BME280;6152;48.728;9.256;2023-02-08T08:33:13;98910.66;;;-2.71;74.73
12178;BME280;6152;48.728;9.256;2023-02-08T08:35:39;98907.50;;;-2.59;74.70
12178;BME280;6152;48.728;9.256;2023-02-08T08:38:06;98909.31;;;-2.53;73.79
12178;BME280;6152;48.728;9.256;2023-02-08T08:40:32;98905.19;;;-2.48;73.05
12178;BME280;6152;48.728;9.256;2023-02-08T08:42:58;98913.91;;;-2.34;73.68
12178;BME280;6152;48.728;9.256;2023-02-08T08:45:24;98900.66;;;-2.18;68.94
12178;BME280;6152;48.728;9.256;2023-02-08T08:47:50;98912.63;;;-2.14;67.11
12178;BME280;6152;48.728;9.256;2023-02-08T08:50:17;98909.38;;;-2.07;66.67
12178;BME280;6152;48.728;9.256;2023-02-08T08:52:43;98919.09;;;-1.86;66.46
12178;BME280;6152;48.728;9.256;2023-02-08T08:55:09;98912.59;;;-1.68;65.76
12178;BME280;6152;48.728;9.256;2023-02-08T08:57:35;98905.31;;;-1.43;63.35
12178;BME280;6152;48.728;9.256;2023-02-08T09:00:02;98910.66;;;-1.28;63.44
12178;BME280;6152;48.728;9.256;2023-02-08T09:02:28;98908.38;;;-1.09;63.06
12178;BME280;6152;48.728;9.256;2023-02-08T09:04:54;98899.31;;;-0.87;61.53
12178;BME280;6152;48.728;9.256;2023-02-08T09:07:20;98891.91;;;-0.67;59.36
12178;BME280;6152;48.728;9.256;2023-02-08T09:09:46;98894.69;;;-0.47;58.52
12178;BME280;6152;48.728;9.256;2023-02-08T09:12:14;98891.56;;;-0.22;58.56
12178;BME280;6152;48.728;9.256;2023-02-08T09:14:43;98897.88;;;0.10;55.31
12178;BME280;6152;48.728;9.256;2023-02-08T09:17:10;98891.97;;;0.19;55.58
12178;BME280;6152;48.728;9.256;2023-02-08T09:19:37;98885.28;;;0.34;54.38
12178;BME280;6152;48.728;9.256;2023-02-08T09:22:05;98888.94;;;0.67;53.32
12178;BME280;6152;48.728;9.256;2023-02-08T09:24:32;98881.44;;;0.92;53.57
12178;BME280;6152;48.728;9.256;2023-02-08T09:26:58;98892.72;;;1.23;52.71
12178;BME280;6152;48.728;9.256;2023-02-08T09:29:25;98890.25;;;1.50;51.28
12178;BME280;6152;48.728;9.256;2023-02-08T09:31:55;98884.31;;;1.58;50.66
12178;BME280;6152;48.728;9.256;2023-02-08T09:34:21;98887.84;;;2.02;50.61
12178;BME280;6152;48.728;9.256;2023-02-08T09:36:47;98879.28;;;2.24;48.49
12178;BME280;6152;48.728;9.256;2023-02-08T09:39:17;98887.00;;;2.58;47.82
12178;BME280;6152;48.728;9.256;2023-02-08T09:42:12;98886.09;;;2.90;46.83
12178;BME280;6152;48.728;9.256;2023-02-08T09:45:05;98887.78;;;3.17;46.54
12178;BME280;6152;48.728;9.256;2023-02-08T09:47:34;98880.59;;;3.92;44.81
12178;BME280;6152;48.728;9.256;2023-02-08T09:53:31;98864.47;;;8.01;37.15
12178;BME280;6152;48.728;9.256;2023-02-08T09:55:58;98868.50;;;10.09;33.26
12178;BME280;6152;48.728;9.256;2023-02-08T09:58:34;98858.00;;;10.93;31.75
12178;BME280;6152;48.728;9.256;2023-02-08T10:01:02;98849.19;;;12.36;29.01
12178;BME280;6152;48.728;9.256;2023-02-08T10:03:40;98843.25;;;12.95;27.50
12178;BME280;6152;48.728;9.256;2023-02-08T10:06:14;98843.13;;;11.68;27.39
12178;BME280;6152;48.728;9.256;2023-02-08T10:08:42;98838.72;;;13.20;27.52
12178;BME280;6152;48.728;9.256;2023-02-08T10:11:39;98835.25;;;15.53;25.91
12178;BME280;6152;48.728;9.256;2023-02-08T10:14:25;98828.41;;;17.20;23.99
12178;BME280;6152;48.728;9.256;2023-02-08T10:25:18;98829.06;;;19.53;19.69
12178;BME280;6152;48.728;9.256;2023-02-08T10:28:25;98817.16;;;19.97;19.77
12178;BME280;6152;48.728;9.256;2023-02-08T10:31:18;98820.94;;;20.05;18.83
12178;BME280;6152;48.728;9.256;2023-02-08T10:36:41;98806.16;;;21.77;18.12
12178;BME280;6152;48.728;9.256;2023-02-08T10:39:22;98806.88;;;21.68;17.18
12178;BME280;6152;48.728;9.256;2023-02-08T10:41:50;98797.59;;;21.74;18.32
12178;BME280;6152;48.728;9.256;2023-02-08T10:44:39;98797.25;;;22.43;17.63
12178;BME280;6152;48.728;9.256;2023-02-08T10:47:35;98788.88;;;22.59;16.86
12178;BME280;6152;48.728;9.256;2023-02-08T10:52:52;98782.63;;;23.63;15.87
12178;BME280;6152;48.728;9.256;2023-02-08T10:55:20;98781.78;;;24.03;16.23
12178;BME280;6152;48.728;9.256;2023-02-08T10:57:49;98788.31;;;24.68;15.50
12178;BME280;6152;48.728;9.256;2023-02-08T11:00:29;98779.41;;;24.09;15.90
12178;BME280;6152;48.728;9.256;2023-02-08T11:02:57;98777.13;;;23.95;15.48
12178;BME280;6152;48.728;9.256;2023-02-08T11:05:35;98770.00;;;23.96;16.11
12178;BME280;6152;48.728;9.256;2023-02-08T11:10:31;98762.25;;;23.93;15.44
12178;BME280;6152;48.728;9.256;2023-02-08T11:13:34;98760.72;;;23.90;15.63
12178;BME280;6152;48.728;9.256;2023-02-08T11:16:04;98757.28;;;22.56;16.57
12178;BME280;6152;48.728;9.256;2023-02-08T11:18:36;98760.81;;;20.67;17.35
12178;BME280;6152;48.728;9.256;2023-02-08T11:23:51;98749.66;;;20.04;18.06
12178;BME280;6152;48.728;9.256;2023-02-08T11:26:22;98743.41;;;17.89;19.29
12178;BME280;6152;48.728;9.256;2023-02-08T11:29:18;98749.84;;;15.95;20.94
12178;BME280;6152;48.728;9.256;2023-02-08T11:34:31;98736.53;;;16.43;21.07
12178;BME280;6152;48.728;9.256;2023-02-08T11:37:11;98736.31;;;15.38;21.65
12178;BME280;6152;48.728;9.256;2023-02-08T11:39:49;98728.63;;;15.35;21.43
12178;BME280;6152;48.728;9.256;2023-02-08T11:42:38;98727.88;;;14.50;22.50
12178;BME280;6152;48.728;9.256;2023-02-08T11:45:06;98735.56;;;14.36;22.70
12178;BME280;6152;48.728;9.256;2023-02-08T11:47:35;98717.16;;;15.05;22.67
12178;BME280;6152;48.728;9.256;2023-02-08T11:50:04;98733.66;;;12.72;24.93
12178;BME280;6152;48.728;9.256;2023-02-08T11:52:37;98723.53;;;13.23;24.94
12178;BME280;6152;48.728;9.256;2023-02-08T11:55:23;98733.38;;;14.10;24.01
12178;BME280;6152;48.728;9.256;2023-02-08T12:00:29;98734.25;;;13.92;23.74
12178;BME280;6152;48.728;9.256;2023-02-08T12:03:01;98724.19;;;10.71;26.94
12178;BME280;6152;48.728;9.256;2023-02-08T12:05:41;98714.56;;;10.73;28.11
12178;BME280;6152;48.728;9.256;2023-02-08T12:08:25;98727.75;;;11.84;26.98
12178;BME280;6152;48.728;9.256;2023-02-08T12:13:34;98711.59;;;13.91;24.75
12178;BME280;6152;48.728;9.256;2023-02-08T12:21:49;98702.91;;;14.43;23.97
12178;BME280;6152;48.728;9.256;2023-02-08T12:35:57;98698.91;;;12.49;26.06
12178;BME280;6152;48.728;9.256;2023-02-08T12:38:28;98679.25;;;13.56;25.41
12178;BME280;6152;48.728;9.256;2023-02-08T12:41:31;98678.91;;;14.16;24.25
12178;BME280;6152;48.728;9.256;2023-02-08T12:49:21;98667.72;;;14.82;23.87
12178;BME280;6152;48.728;9.256;2023-02-08T12:51:58;98657.94;;;13.46;26.06
12178;BME280;6152;48.728;9.256;2023-02-08T12:57:23;98644.19;;;14.13;24.80
12178;BME280;6152;48.728;9.256;2023-02-08T13:04:53;98629.81;;;13.14;26.58
12178;BME280;6152;48.728;9.256;2023-02-08T13:07:32;98635.53;;;12.05;27.68
12178;BME280;6152;48.728;9.256;2023-02-08T13:13:15;98624.75;;;13.11;25.65
12178;BME280;6152;48.728;9.256;2023-02-08T13:15:43;98623.47;;;13.20;26.12
12178;BME280;6152;48.728;9.256;2023-02-08T13:18:29;98622.44;;;12.27;27.03
12178;BME280;6152;48.728;9.256;2023-02-08T13:21:11;98619.41;;;9.90;30.09
12178;BME280;6152;48.728;9.256;2023-02-08T13:24:24;98620.34;;;9.07;31.79
12178;BME280;6152;48.728;9.256;2023-02-08T13:26:51;98622.34;;;7.74;33.78
12178;BME280;6152;48.728;9.256;2023-02-08T13:29:19;98617.47;;;7.25;35.27
12178;BME280;6152;48.728;9.256;2023-02-08T13:32:00;98618.13;;;7.70;35.04
12178;BME280;6152;48.728;9.256;2023-02-08T13:34:37;98618.28;;;7.62;34.57
12178;BME280;6152;48.728;9.256;2023-02-08T13:37:27;98616.50;;;8.32;34.39
12178;BME280;6152;48.728;9.256;2023-02-08T13:40:06;98625.56;;;10.13;32.22
12178;BME280;6152;48.728;9.256;2023-02-08T13:45:08;98620.50;;;8.75;33.56
12178;BME280;6152;48.728;9.256;2023-02-08T13:47:55;98616.03;;;9.61;32.92
12178;BME280;6152;48.728;9.256;2023-02-08T13:50:44;98615.78;;;8.58;33.26
12178;BME280;6152;48.728;9.256;2023-02-08T13:53:11;98612.75;;;7.78;35.08
12178;BME280;6152;48.728;9.256;2023-02-08T14:01:21;98623.91;;;5.79;39.03
12178;BME280;6152;48.728;9.256;2023-02-08T14:06:56;98630.00;;;5.21;40.49
12178;BME280;6152;48.728;9.256;2023-02-08T14:09:27;98633.81;;;4.96;41.99
12178;BME280;6152;48.728;9.256;2023-02-08T14:14:40;98639.56;;;4.50;43.19
12178;BME280;6152;48.728;9.256;2023-02-08T14:17:07;98637.84;;;4.49;43.54
12178;BME280;6152;48.728;9.256;2023-02-08T14:19:41;98638.06;;;4.34;43.67
12178;BME280;6152;48.728;9.256;2023-02-08T14:24:42;98627.91;;;4.19;44.06
12178;BME280;6152;48.728;9.256;2023-02-08T14:27:32;98636.81;;;3.88;45.14
12178;BME280;6152;48.728;9.256;2023-02-08T14:35:28;98638.59;;;3.80;45.84
12178;BME280;6152;48.728;9.256;2023-02-08T14:40:55;98639.72;;;3.50;47.82
12178;BME280;6152;48.728;9.256;2023-02-08T14:43:31;98634.72;;;3.32;48.34
12178;BME280;6152;48.728;9.256;2023-02-08T14:46:40;98632.25;;;3.18;48.45
12178;BME280;6152;48.728;9.256;2023-02-08T14:48:52;98630.41;;;3.35;48.89
12178;BME280;6152;48.728;9.256;2023-02-08T14:51:26;98629.53;;;3.36;48.78
12178;BME280;6152;48.728;9.256;2023-02-08T14:54:01;98633.84;;;3.37;49.02
12178;BME280;6152;48.728;9.256;2023-02-08T14:56:47;98633.16;;;3.10;48.89
12178;BME280;6152;48.728;9.256;2023-02-08T14:59:18;98627.16;;;3.09;49.29
12178;BME280;6152;48.728;9.256;2023-02-08T15:02:07;98625.56;;;2.90;49.63
12178;BME280;6152;48.728;9.256;2023-02-08T15:04:42;98626.38;;;2.99;50.27
12178;BME280;6152;48.728;9.256;2023-02-08T15:10:13;98641.88;;;2.84;50.58
12178;BME280;6152;48.728;9.256;2023-02-08T15:12:43;98644.47;;;2.86;51.26
12178;BME280;6152;48.728;9.256;2023-02-08T15:15:28;98635.94;;;2.75;50.99
12178;BME280;6152;48.728;9.256;2023-02-08T15:17:56;98641.13;;;2.69;51.03
12178;BME280;6152;48.728;9.256;2023-02-08T15:20:26;98654.88;;;2.62;51.19
12178;BME280;6152;48.728;9.256;2023-02-08T15:23:00;98645.47;;;2.53;51.17
12178;BME280;6152;48.728;9.256;2023-02-08T15:25:35;98648.06;;;2.51;51.48
12178;BME280;6152;48.728;9.256;2023-02-08T15:28:15;98641.25;;;2.35;51.63
12178;BME280;6152;48.728;9.256;2023-02-08T15:30:42;98642.97;;;2.29;52.23